sensor_id;sensor_type;location;lat;lon;timestamp;temperature;humidity
54431;DHT22;40342;52.998;5.862;2023-05-10T00:01:23;12.00;99.90
54431;DHT22;40342;52.998;5.862;2023-05-10T00:03:48;12.00;99.90
54431;DHT22;40342;52.998;5.862;2023-05-10T00:06:14;12.00;99.90
54431;DHT22;40342;52.998;5.862;2023-05-10T00:08:40;12.00;99.90
54431;DHT22;40342;52.998;5.862;2023-05-10T00:11:05;11.90;99.90
54431;DHT22;40342;52.998;5.862;2023-05-10T00:13:31;12.00;99.90
54431;DHT22;40342;52.998;5.862;2023-05-10T00:15:57;11.90;99.90
54431;DHT22;40342;52.998;5.862;2023-05-10T00:18:22;11.90;99.90
54431;DHT22;40342;52.998;5.862;2023-05-10T00:20:48;11.90;99.90
54431;DHT22;40342;52.998;5.862;2023-05-10T00:23:14;12.20;99.90
54431;DHT22;40342;52.998;5.862;2023-05-10T00:25:39;11.90;99.90
54431;DHT22;40342;52.998;5.862;2023-05-10T00:28:05;11.90;99.90
54431;DHT22;40342;52.998;5.862;2023-05-10T00:30:31;12.00;99.90
54431;DHT22;40342;52.998;5.862;2023-05-10T00:32:56;12.00;99.90
54431;DHT22;40342;52.998;5.862;2023-05-10T00:35:22;12.00;99.90
54431;DHT22;40342;52.998;5.862;2023-05-10T00:37:48;12.00;99.90
54431;DHT22;40342;52.998;5.862;2023-05-10T00:40:13;12.10;99.90
54431;DHT22;40342;52.998;5.862;2023-05-10T00:42:39;12.10;99.90
54431;DHT22;40342;52.998;5.862;2023-05-10T00:45:06;12.10;99.90
54431;DHT22;40342;52.998;5.862;2023-05-10T00:47:32;12.10;99.90
54431;DHT22;40342;52.998;5.862;2023-05-10T00:49:58;12.10;99.90
54431;DHT22;40342;52.998;5.862;2023-05-10T00:52:26;12.10;99.90
54431;DHT22;40342;52.998;5.862;2023-05-10T00:54:52;12.10;99.90
54431;DHT22;40342;52.998;5.862;2023-05-10T00:57:19;12.10;99.90
54431;DHT22;40342;52.998;5.862;2023-05-10T00:59:44;12.10;99.90
54431;DHT22;40342;52.998;5.862;2023-05-10T01:02:11;12.10;99.90
54431;DHT22;40342;52.998;5.862;2023-05-10T01:04:37;12.10;99.90
54431;DHT22;40342;52.998;5.862;2023-05-10T01:07:03;12.10;99.90
54431;DHT22;40342;52.998;5.862;2023-05-10T01:09:29;12.10;99.90
54431;DHT22;40342;52.998;5.862;2023-05-10T01:11:54;12.10;99.90
54431;DHT22;40342;52.998;5.862;2023-05-10T01:14:21;12.10;99.90
54431;DHT22;40342;52.998;5.862;2023-05-10T01:16:48;12.10;99.90
54431;DHT22;40342;52.998;5.862;2023-05-10T01:19:20;12.10;99.90
54431;DHT22;40342;52.998;5.862;2023-05-10T01:21:57;12.00;99.90
54431;DHT22;40342;52.998;5.862;2023-05-10T01:25:05;12.10;99.90
54431;DHT22;40342;52.998;5.862;2023-05-10T01:33:21;12.00;99.90
54431;DHT22;40342;52.998;5.862;2023-05-10T01:41:17;12.00;99.90
54431;DHT22;40342;52.998;5.862;2023-05-10T01:43:53;12.10;99.90
54431;DHT22;40342;52.998;5.862;2023-05-10T01:46:40;12.10;99.90
54431;DHT22;40342;52.998;5.862;2023-05-10T01:49:25;12.10;99.90
54431;DHT22;40342;52.998;5.862;2023-05-10T01:51:53;12.10;99.90
54431;DHT22;40342;52.998;5.862;2023-05-10T01:54:21;12.00;99.90
54431;DHT22;40342;52.998;5.862;2023-05-10T01:56:55;12.00;99.90
54431;DHT22;40342;52.998;5.862;2023-05-10T01:59:21;12.00;99.90
54431;DHT22;40342;52.998;5.862;2023-05-10T02:01:48;12.10;99.90
54431;DHT22;40342;52.998;5.862;2023-05-10T02:04:16;12.00;99.90
54431;DHT22;40342;52.998;5.862;2023-05-10T02:06:43;12.00;99.90
54431;DHT22;40342;52.998;5.862;2023-05-10T02:09:10;12.10;99.90
54431;DHT22;40342;52.998;5.862;2023-05-10T02:11:41;12.10;99.90
54431;DHT22;40342;52.998;5.862;2023-05-10T02:14:09;12.10;99.90
54431;DHT22;40342;52.998;5.862;2023-05-10T02:16:36;12.00;99.90
54431;DHT22;40342;52.998;5.862;2023-05-10T02:19:03;12.00;99.90
54431;DHT22;40342;52.998;5.862;2023-05-10T02:21:29;12.00;99.90
54431;DHT22;40342;52.998;5.862;2023-05-10T02:23:57;12.00;99.90
54431;DHT22;40342;52.998;5.862;2023-05-10T02:26:23;12.00;99.90
54431;DHT22;40342;52.998;5.862;2023-05-10T02:28:51;12.00;99.90
54431;DHT22;40342;52.998;5.862;2023-05-10T02:31:17;12.10;99.90
54431;DHT22;40342;52.998;5.862;2023-05-10T02:33:44;12.10;99.90
54431;DHT22;40342;52.998;5.862;2023-05-10T02:36:12;12.10;99.90
54431;DHT22;40342;52.998;5.862;2023-05-10T02:38:39;12.00;99.90
54431;DHT22;40342;52.998;5.862;2023-05-10T02:41:07;12.10;99.90
54431;DHT22;40342;52.998;5.862;2023-05-10T02:43:34;12.00;99.90
54431;DHT22;40342;52.998;5.862;2023-05-10T02:46:01;12.10;99.90
54431;DHT22;40342;52.998;5.862;2023-05-10T02:48:27;12.10;99.90
54431;DHT22;40342;52.998;5.862;2023-05-10T02:50:54;12.00;99.90
54431;DHT22;40342;52.998;5.862;2023-05-10T02:53:23;12.00;99.90
54431;DHT22;40342;52.998;5.862;2023-05-10T02:55:56;12.10;99.90
54431;DHT22;40342;52.998;5.862;2023-05-10T02:58:24;12.10;99.90
54431;DHT22;40342;52.998;5.862;2023-05-10T03:00:49;12.00;99.90
54431;DHT22;40342;52.998;5.862;2023-05-10T03:03:15;12.10;99.90
54431;DHT22;40342;52.998;5.862;2023-05-10T03:05:41;12.00;99.90
54431;DHT22;40342;52.998;5.862;2023-05-10T03:08:07;12.00;99.90
54431;DHT22;40342;52.998;5.862;2023-05-10T03:10:34;12.00;99.90
54431;DHT22;40342;52.998;5.862;2023-05-10T03:13:44;12.00;99.90
54431;DHT22;40342;52.998;5.862;2023-05-10T03:16:26;12.00;99.90
54431;DHT22;40342;52.998;5.862;2023-05-10T03:19:06;12.00;99.90
54431;DHT22;40342;52.998;5.862;2023-05-10T03:21:35;12.00;99.90
54431;DHT22;40342;52.998;5.862;2023-05-10T03:24:07;12.00;99.90
54431;DHT22;40342;52.998;5.862;2023-05-10T03:26:34;12.00;99.90
54431;DHT22;40342;52.998;5.862;2023-05-10T03:29:00;12.00;99.90
54431;DHT22;40342;52.998;5.862;2023-05-10T03:31:26;12.00;99.90
54431;DHT22;40342;52.998;5.862;2023-05-10T03:33:52;12.00;99.90
54431;DHT22;40342;52.998;5.862;2023-05-10T03:36:19;12.00;99.90
54431;DHT22;40342;52.998;5.862;2023-05-10T03:38:45;12.10;99.90
54431;DHT22;40342;52.998;5.862;2023-05-10T03:41:10;12.10;99.90
54431;DHT22;40342;52.998;5.862;2023-05-10T03:43:36;12.00;99.90
54431;DHT22;40342;52.998;5.862;2023-05-10T03:46:05;12.00;99.90
54431;DHT22;40342;52.998;5.862;2023-05-10T03:48:32;12.00;99.90
54431;DHT22;40342;52.998;5.862;2023-05-10T03:50:58;12.00;99.90
54431;DHT22;40342;52.998;5.862;2023-05-10T03:53:23;12.00;99.90
54431;DHT22;40342;52.998;5.862;2023-05-10T03:55:49;12.10;99.90
54431;DHT22;40342;52.998;5.862;2023-05-10T03:58:15;12.00;99.90
54431;DHT22;40342;52.998;5.862;2023-05-10T04:00:40;12.10;99.90
54431;DHT22;40342;52.998;5.862;2023-05-10T04:03:11;12.00;99.90
54431;DHT22;40342;52.998;5.862;2023-05-10T04:05:36;12.00;99.90
54431;DHT22;40342;52.998;5.862;2023-05-10T04:08:03;12.00;99.90
54431;DHT22;40342;52.998;5.862;2023-05-10T04:10:29;12.10;99.90
54431;DHT22;40342;52.998;5.862;2023-05-10T04:12:54;12.10;99.90
54431;DHT22;40342;52.998;5.862;2023-05-10T04:15:20;12.00;99.90
54431;DHT22;40342;52.998;5.862;2023-05-10T04:17:47;12.00;99.90
54431;DHT22;40342;52.998;5.862;2023-05-10T04:20:13;12.00;99.90
54431;DHT22;40342;52.998;5.862;2023-05-10T04:22:38;12.00;99.90
54431;DHT22;40342;52.998;5.862;2023-05-10T04:25:04;12.00;99.90
54431;DHT22;40342;52.998;5.862;2023-05-10T04:27:31;12.00;99.90
54431;DHT22;40342;52.998;5.862;2023-05-10T04:29:57;12.00;99.90
54431;DHT22;40342;52.998;5.862;2023-05-10T04:32:22;12.00;99.90
54431;DHT22;40342;52.998;5.862;2023-05-10T04:34:48;12.00;99.90
54431;DHT22;40342;52.998;5.862;2023-05-10T04:37:14;12.00;99.90
54431;DHT22;40342;52.998;5.862;2023-05-10T04:39:40;12.00;99.90
54431;DHT22;40342;52.998;5.862;2023-05-10T04:42:05;12.00;99.90
54431;DHT22;40342;52.998;5.862;2023-05-10T04:44:31;12.00;99.90
54431;DHT22;40342;52.998;5.862;2023-05-10T04:46:58;12.00;99.90
54431;DHT22;40342;52.998;5.862;2023-05-10T04:49:24;12.00;99.90
54431;DHT22;40342;52.998;5.862;2023-05-10T04:51:49;12.00;99.90
54431;DHT22;40342;52.998;5.862;2023-05-10T04:54:15;12.00;99.90
54431;DHT22;40342;52.998;5.862;2023-05-10T04:56:41;12.10;99.90
54431;DHT22;40342;52.998;5.862;2023-05-10T04:59:07;12.00;99.90
54431;DHT22;40342;52.998;5.862;2023-05-10T05:01:32;12.10;99.90
54431;DHT22;40342;52.998;5.862;2023-05-10T05:03:58;12.00;99.90
54431;DHT22;40342;52.998;5.862;2023-05-10T05:06:24;12.00;99.90
54431;DHT22;40342;52.998;5.862;2023-05-10T05:08:50;12.00;99.90
54431;DHT22;40342;52.998;5.862;2023-05-10T05:11:17;12.10;99.90
54431;DHT22;40342;52.998;5.862;2023-05-10T05:13:42;12.00;99.90
54431;DHT22;40342;52.998;5.862;2023-05-10T05:16:08;12.00;99.90
54431;DHT22;40342;52.998;5.862;2023-05-10T05:18:34;12.10;99.90
54431;DHT22;40342;52.998;5.862;2023-05-10T05:21:00;12.10;99.90
54431;DHT22;40342;52.998;5.862;2023-05-10T05:23:26;12.10;99.90
54431;DHT22;40342;52.998;5.862;2023-05-10T05:25:52;12.10;99.90
54431;DHT22;40342;52.998;5.862;2023-05-10T05:28:19;12.00;99.90
54431;DHT22;40342;52.998;5.862;2023-05-10T05:30:45;12.00;99.90
54431;DHT22;40342;52.998;5.862;2023-05-10T05:33:10;11.90;99.90
54431;DHT22;40342;52.998;5.862;2023-05-10T05:35:36;12.00;99.90
54431;DHT22;40342;52.998;5.862;2023-05-10T05:38:02;12.00;99.90
54431;DHT22;40342;52.998;5.862;2023-05-10T05:40:28;12.00;99.90
54431;DHT22;40342;52.998;5.862;2023-05-10T05:42:53;12.00;99.90
54431;DHT22;40342;52.998;5.862;2023-05-10T05:45:19;12.00;99.90
54431;DHT22;40342;52.998;5.862;2023-05-10T05:47:44;12.00;99.90
54431;DHT22;40342;52.998;5.862;2023-05-10T05:50:10;12.00;99.90
54431;DHT22;40342;52.998;5.862;2023-05-10T05:52:36;12.00;99.90
54431;DHT22;40342;52.998;5.862;2023-05-10T05:55:01;12.00;99.90
54431;DHT22;40342;52.998;5.862;2023-05-10T05:57:28;12.00;99.90
54431;DHT22;40342;52.998;5.862;2023-05-10T05:59:53;12.00;99.90
54431;DHT22;40342;52.998;5.862;2023-05-10T06:02:19;12.00;99.90
54431;DHT22;40342;52.998;5.862;2023-05-10T06:04:44;12.00;99.90
54431;DHT22;40342;52.998;5.862;2023-05-10T06:07:10;11.90;99.90
54431;DHT22;40342;52.998;5.862;2023-05-10T06:09:35;12.00;99.90
54431;DHT22;40342;52.998;5.862;2023-05-10T06:12:01;12.00;99.90
54431;DHT22;40342;52.998;5.862;2023-05-10T06:14:26;12.00;99.90
54431;DHT22;40342;52.998;5.862;2023-05-10T06:16:52;12.00;99.90
54431;DHT22;40342;52.998;5.862;2023-05-10T06:19:18;12.00;99.90
54431;DHT22;40342;52.998;5.862;2023-05-10T06:21:43;12.00;99.90
54431;DHT22;40342;52.998;5.862;2023-05-10T06:24:09;12.10;99.90
54431;DHT22;40342;52.998;5.862;2023-05-10T06:26:35;12.10;99.90
54431;DHT22;40342;52.998;5.862;2023-05-10T06:29:00;12.10;99.90
54431;DHT22;40342;52.998;5.862;2023-05-10T06:31:26;12.10;99.90
54431;DHT22;40342;52.998;5.862;2023-05-10T06:33:52;12.20;99.90
54431;DHT22;40342;52.998;5.862;2023-05-10T06:36:18;12.20;99.90
54431;DHT22;40342;52.998;5.862;2023-05-10T06:38:43;12.20;99.90
54431;DHT22;40342;52.998;5.862;2023-05-10T06:41:09;12.30;99.90
54431;DHT22;40342;52.998;5.862;2023-05-10T06:43:35;12.30;99.90
54431;DHT22;40342;52.998;5.862;2023-05-10T06:46:00;12.20;99.90
54431;DHT22;40342;52.998;5.862;2023-05-10T06:48:26;12.20;99.90
54431;DHT22;40342;52.998;5.862;2023-05-10T06:50:51;12.20;99.90
54431;DHT22;40342;52.998;5.862;2023-05-10T06:53:17;12.30;99.90
54431;DHT22;40342;52.998;5.862;2023-05-10T06:55:43;12.30;99.90
54431;DHT22;40342;52.998;5.862;2023-05-10T06:58:08;12.30;99.90
54431;DHT22;40342;52.998;5.862;2023-05-10T07:00:34;12.30;99.90
54431;DHT22;40342;52.998;5.862;2023-05-10T07:02:59;12.30;99.90
54431;DHT22;40342;52.998;5.862;2023-05-10T07:05:25;12.20;99.90
54431;DHT22;40342;52.998;5.862;2023-05-10T07:07:53;12.30;99.90
54431;DHT22;40342;52.998;5.862;2023-05-10T07:10:19;12.20;99.90
54431;DHT22;40342;52.998;5.862;2023-05-10T07:12:44;12.30;99.90
54431;DHT22;40342;52.998;5.862;2023-05-10T07:15:10;13.10;99.90
54431;DHT22;40342;52.998;5.862;2023-05-10T07:17:35;12.30;99.90
54431;DHT22;40342;52.998;5.862;2023-05-10T07:20:01;12.30;99.90
54431;DHT22;40342;52.998;5.862;2023-05-10T07:22:28;12.30;99.90
54431;DHT22;40342;52.998;5.862;2023-05-10T07:24:54;12.30;99.90
54431;DHT22;40342;52.998;5.862;2023-05-10T07:27:20;12.30;99.90
54431;DHT22;40342;52.998;5.862;2023-05-10T07:29:45;12.20;99.90
54431;DHT22;40342;52.998;5.862;2023-05-10T07:32:11;12.30;99.90
54431;DHT22;40342;52.998;5.862;2023-05-10T07:34:36;12.30;99.90
54431;DHT22;40342;52.998;5.862;2023-05-10T07:37:02;12.30;99.90
54431;DHT22;40342;52.998;5.862;2023-05-10T07:39:28;12.20;99.90
54431;DHT22;40342;52.998;5.862;2023-05-10T07:41:54;12.30;99.90
54431;DHT22;40342;52.998;5.862;2023-05-10T07:44:20;12.30;99.90
54431;DHT22;40342;52.998;5.862;2023-05-10T07:46:46;12.30;99.90
54431;DHT22;40342;52.998;5.862;2023-05-10T07:49:12;12.30;99.90
54431;DHT22;40342;52.998;5.862;2023-05-10T07:51:38;12.30;99.90
54431;DHT22;40342;52.998;5.862;2023-05-10T07:54:03;12.30;99.90
54431;DHT22;40342;52.998;5.862;2023-05-10T07:56:31;12.30;99.90
54431;DHT22;40342;52.998;5.862;2023-05-10T07:58:58;12.30;99.90
54431;DHT22;40342;52.998;5.862;2023-05-10T08:01:25;12.30;99.90
54431;DHT22;40342;52.998;5.862;2023-05-10T08:03:50;12.30;99.90
54431;DHT22;40342;52.998;5.862;2023-05-10T08:06:20;12.40;99.90
54431;DHT22;40342;52.998;5.862;2023-05-10T08:08:47;12.40;99.90
54431;DHT22;40342;52.998;5.862;2023-05-10T08:11:17;12.40;99.90
54431;DHT22;40342;52.998;5.862;2023-05-10T08:13:44;12.40;99.90
54431;DHT22;40342;52.998;5.862;2023-05-10T08:16:10;12.50;99.90
54431;DHT22;40342;52.998;5.862;2023-05-10T08:18:36;12.50;99.90
54431;DHT22;40342;52.998;5.862;2023-05-10T08:21:01;12.50;99.90
54431;DHT22;40342;52.998;5.862;2023-05-10T08:23:27;12.60;99.90
54431;DHT22;40342;52.998;5.862;2023-05-10T08:25:53;12.60;99.90
54431;DHT22;40342;52.998;5.862;2023-05-10T08:28:18;12.60;99.90
54431;DHT22;40342;52.998;5.862;2023-05-10T08:30:44;12.70;99.90
54431;DHT22;40342;52.998;5.862;2023-05-10T08:33:09;12.70;99.90
54431;DHT22;40342;52.998;5.862;2023-05-10T08:35:35;12.70;99.90
54431;DHT22;40342;52.998;5.862;2023-05-10T08:38:01;12.80;99.90
54431;DHT22;40342;52.998;5.862;2023-05-10T08:40:27;12.80;99.90
54431;DHT22;40342;52.998;5.862;2023-05-10T08:43:00;12.90;99.90
54431;DHT22;40342;52.998;5.862;2023-05-10T08:45:32;12.90;99.90
54431;DHT22;40342;52.998;5.862;2023-05-10T08:47:59;13.00;99.90
54431;DHT22;40342;52.998;5.862;2023-05-10T08:50:25;13.10;99.90
54431;DHT22;40342;52.998;5.862;2023-05-10T08:52:53;13.20;99.90
54431;DHT22;40342;52.998;5.862;2023-05-10T08:55:20;13.20;99.90
54431;DHT22;40342;52.998;5.862;2023-05-10T08:57:49;13.30;99.90
54431;DHT22;40342;52.998;5.862;2023-05-10T09:00:15;13.30;99.90
54431;DHT22;40342;52.998;5.862;2023-05-10T09:02:42;13.30;99.90
54431;DHT22;40342;52.998;5.862;2023-05-10T09:05:08;13.40;99.90
54431;DHT22;40342;52.998;5.862;2023-05-10T09:07:36;13.40;99.90
54431;DHT22;40342;52.998;5.862;2023-05-10T09:10:02;13.50;99.90
54431;DHT22;40342;52.998;5.862;2023-05-10T09:12:28;13.50;99.90
54431;DHT22;40342;52.998;5.862;2023-05-10T09:14:54;13.50;99.90
54431;DHT22;40342;52.998;5.862;2023-05-10T09:17:22;13.50;99.90
54431;DHT22;40342;52.998;5.862;2023-05-10T09:19:48;13.50;99.90
54431;DHT22;40342;52.998;5.862;2023-05-10T09:22:14;13.50;99.90
54431;DHT22;40342;52.998;5.862;2023-05-10T09:24:39;13.50;99.90
54431;DHT22;40342;52.998;5.862;2023-05-10T09:27:10;13.60;99.90
54431;DHT22;40342;52.998;5.862;2023-05-10T09:29:41;13.60;99.90
54431;DHT22;40342;52.998;5.862;2023-05-10T09:32:06;13.60;99.90
54431;DHT22;40342;52.998;5.862;2023-05-10T09:34:32;13.70;99.90
54431;DHT22;40342;52.998;5.862;2023-05-10T09:37:01;13.70;99.90
54431;DHT22;40342;52.998;5.862;2023-05-10T09:39:35;13.70;99.90
54431;DHT22;40342;52.998;5.862;2023-05-10T09:42:06;13.70;99.90
54431;DHT22;40342;52.998;5.862;2023-05-10T09:44:33;13.70;99.90
54431;DHT22;40342;52.998;5.862;2023-05-10T09:47:00;13.70;99.90
54431;DHT22;40342;52.998;5.862;2023-05-10T09:49:25;13.80;99.90
54431;DHT22;40342;52.998;5.862;2023-05-10T09:52:07;13.80;99.90
54431;DHT22;40342;52.998;5.862;2023-05-10T09:54:34;13.80;99.90
54431;DHT22;40342;52.998;5.862;2023-05-10T09:57:00;13.80;99.90
54431;DHT22;40342;52.998;5.862;2023-05-10T09:59:26;13.80;99.90
54431;DHT22;40342;52.998;5.862;2023-05-10T10:01:57;13.90;99.90
54431;DHT22;40342;52.998;5.862;2023-05-10T10:04:23;13.90;99.90
54431;DHT22;40342;52.998;5.862;2023-05-10T10:06:59;13.90;99.90
54431;DHT22;40342;52.998;5.862;2023-05-10T10:09:26;14.00;99.90
54431;DHT22;40342;52.998;5.862;2023-05-10T10:11:52;14.00;99.90
54431;DHT22;40342;52.998;5.862;2023-05-10T10:14:19;14.00;99.90
54431;DHT22;40342;52.998;5.862;2023-05-10T10:16:45;14.00;99.90
54431;DHT22;40342;52.998;5.862;2023-05-10T10:19:12;14.10;99.90
54431;DHT22;40342;52.998;5.862;2023-05-10T10:21:38;14.20;99.90
54431;DHT22;40342;52.998;5.862;2023-05-10T10:24:03;14.20;99.90
54431;DHT22;40342;52.998;5.862;2023-05-10T10:26:33;14.30;99.90
54431;DHT22;40342;52.998;5.862;2023-05-10T10:34:35;14.30;99.90
54431;DHT22;40342;52.998;5.862;2023-05-10T10:37:06;14.30;99.90
54431;DHT22;40342;52.998;5.862;2023-05-10T10:39:32;14.20;99.90
54431;DHT22;40342;52.998;5.862;2023-05-10T10:41:58;14.20;99.90
54431;DHT22;40342;52.998;5.862;2023-05-10T10:49:49;14.10;99.90
54431;DHT22;40342;52.998;5.862;2023-05-10T10:52:30;14.10;99.90
54431;DHT22;40342;52.998;5.862;2023-05-10T10:55:07;14.10;99.90
54431;DHT22;40342;52.998;5.862;2023-05-10T10:57:49;14.10;99.90
54431;DHT22;40342;52.998;5.862;2023-05-10T11:00:21;14.10;99.90
54431;DHT22;40342;52.998;5.862;2023-05-10T11:02:49;14.20;99.90
54431;DHT22;40342;52.998;5.862;2023-05-10T11:07:55;14.20;99.90
54431;DHT22;40342;52.998;5.862;2023-05-10T11:10:22;14.20;99.90
54431;DHT22;40342;52.998;5.862;2023-05-10T11:13:07;14.20;99.90
54431;DHT22;40342;52.998;5.862;2023-05-10T11:15:39;14.30;99.90
54431;DHT22;40342;52.998;5.862;2023-05-10T11:18:28;14.30;99.90
54431;DHT22;40342;52.998;5.862;2023-05-10T11:21:01;14.30;99.90
54431;DHT22;40342;52.998;5.862;2023-05-10T11:26:12;14.30;99.90
54431;DHT22;40342;52.998;5.862;2023-05-10T11:28:42;14.30;99.90
54431;DHT22;40342;52.998;5.862;2023-05-10T11:31:08;14.30;99.90
54431;DHT22;40342;52.998;5.862;2023-05-10T11:36:17;14.20;99.90
54431;DHT22;40342;52.998;5.862;2023-05-10T11:38:44;14.20;99.90
54431;DHT22;40342;52.998;5.862;2023-05-10T11:41:10;14.10;99.90
54431;DHT22;40342;52.998;5.862;2023-05-10T11:43:38;14.10;99.90
54431;DHT22;40342;52.998;5.862;2023-05-10T11:46:10;14.10;99.90
54431;DHT22;40342;52.998;5.862;2023-05-10T11:48:38;14.20;99.90
54431;DHT22;40342;52.998;5.862;2023-05-10T11:51:04;14.20;99.90
54431;DHT22;40342;52.998;5.862;2023-05-10T11:53:31;14.20;99.90
54431;DHT22;40342;52.998;5.862;2023-05-10T11:56:23;14.20;99.90
54431;DHT22;40342;52.998;5.862;2023-05-10T11:58:57;14.10;99.90
54431;DHT22;40342;52.998;5.862;2023-05-10T12:01:24;14.10;99.90
54431;DHT22;40342;52.998;5.862;2023-05-10T12:03:51;14.10;99.90
54431;DHT22;40342;52.998;5.862;2023-05-10T12:06:21;14.10;99.90
54431;DHT22;40342;52.998;5.862;2023-05-10T12:08:48;14.10;99.90
54431;DHT22;40342;52.998;5.862;2023-05-10T12:11:18;14.10;99.90
54431;DHT22;40342;52.998;5.862;2023-05-10T12:13:46;14.10;99.90
54431;DHT22;40342;52.998;5.862;2023-05-10T12:16:13;14.20;99.90
54431;DHT22;40342;52.998;5.862;2023-05-10T12:18:40;14.20;99.90
54431;DHT22;40342;52.998;5.862;2023-05-10T12:21:06;14.20;99.90
54431;DHT22;40342;52.998;5.862;2023-05-10T12:23:32;14.30;99.90
54431;DHT22;40342;52.998;5.862;2023-05-10T12:26:04;14.30;99.90
54431;DHT22;40342;52.998;5.862;2023-05-10T12:28:30;14.40;99.90
54431;DHT22;40342;52.998;5.862;2023-05-10T12:30:57;14.40;99.90
54431;DHT22;40342;52.998;5.862;2023-05-10T12:33:24;14.50;99.90
54431;DHT22;40342;52.998;5.862;2023-05-10T12:35:52;14.50;99.90
54431;DHT22;40342;52.998;5.862;2023-05-10T12:38:29;14.60;99.90
54431;DHT22;40342;52.998;5.862;2023-05-10T12:41:01;14.60;99.90
54431;DHT22;40342;52.998;5.862;2023-05-10T12:43:27;14.70;99.90
54431;DHT22;40342;52.998;5.862;2023-05-10T12:45:53;14.80;99.90
54431;DHT22;40342;52.998;5.862;2023-05-10T12:48:19;14.80;99.90
54431;DHT22;40342;52.998;5.862;2023-05-10T12:50:45;14.90;99.90
54431;DHT22;40342;52.998;5.862;2023-05-10T12:53:13;15.00;99.90
54431;DHT22;40342;52.998;5.862;2023-05-10T12:55:39;15.00;99.90
54431;DHT22;40342;52.998;5.862;2023-05-10T12:58:05;15.10;99.90
54431;DHT22;40342;52.998;5.862;2023-05-10T13:00:30;15.20;99.90
54431;DHT22;40342;52.998;5.862;2023-05-10T13:02:56;15.30;99.90
54431;DHT22;40342;52.998;5.862;2023-05-10T13:05:21;15.20;99.90
54431;DHT22;40342;52.998;5.862;2023-05-10T13:07:47;15.20;99.90
54431;DHT22;40342;52.998;5.862;2023-05-10T13:10:12;15.30;99.90
54431;DHT22;40342;52.998;5.862;2023-05-10T13:12:38;15.30;99.90
54431;DHT22;40342;52.998;5.862;2023-05-10T13:15:04;15.30;99.90
54431;DHT22;40342;52.998;5.862;2023-05-10T13:17:30;15.30;99.90
54431;DHT22;40342;52.998;5.862;2023-05-10T13:19:55;15.30;99.90
54431;DHT22;40342;52.998;5.862;2023-05-10T13:22:21;15.30;99.90
54431;DHT22;40342;52.998;5.862;2023-05-10T13:24:46;15.40;99.90
54431;DHT22;40342;52.998;5.862;2023-05-10T13:27:12;15.40;99.90
54431;DHT22;40342;52.998;5.862;2023-05-10T13:29:38;15.30;99.90
54431;DHT22;40342;52.998;5.862;2023-05-10T13:32:03;15.40;99.90
54431;DHT22;40342;52.998;5.862;2023-05-10T13:34:29;15.40;99.90
54431;DHT22;40342;52.998;5.862;2023-05-10T13:36:55;15.30;99.90
54431;DHT22;40342;52.998;5.862;2023-05-10T13:39:21;15.30;99.90
54431;DHT22;40342;52.998;5.862;2023-05-10T13:41:47;15.30;99.90
54431;DHT22;40342;52.998;5.862;2023-05-10T13:44:14;15.20;99.90
54431;DHT22;40342;52.998;5.862;2023-05-10T13:46:43;15.20;99.90
54431;DHT22;40342;52.998;5.862;2023-05-10T13:49:09;15.30;99.90
54431;DHT22;40342;52.998;5.862;2023-05-10T13:51:35;15.20;99.90
54431;DHT22;40342;52.998;5.862;2023-05-10T13:54:01;15.20;99.90
54431;DHT22;40342;52.998;5.862;2023-05-10T13:56:27;15.10;99.90
54431;DHT22;40342;52.998;5.862;2023-05-10T13:58:53;15.20;99.90
54431;DHT22;40342;52.998;5.862;2023-05-10T14:01:19;15.20;99.90
54431;DHT22;40342;52.998;5.862;2023-05-10T14:03:44;15.20;99.90
54431;DHT22;40342;52.998;5.862;2023-05-10T14:06:10;15.20;99.90
54431;DHT22;40342;52.998;5.862;2023-05-10T14:08:36;15.20;99.90
54431;DHT22;40342;52.998;5.862;2023-05-10T14:11:02;15.10;99.90
54431;DHT22;40342;52.998;5.862;2023-05-10T14:13:27;15.10;99.90
54431;DHT22;40342;52.998;5.862;2023-05-10T14:15:54;15.10;99.90
54431;DHT22;40342;52.998;5.862;2023-05-10T14:18:20;15.00;99.90
54431;DHT22;40342;52.998;5.862;2023-05-10T14:20:45;15.00;99.90
54431;DHT22;40342;52.998;5.862;2023-05-10T14:23:11;15.00;99.90
54431;DHT22;40342;52.998;5.862;2023-05-10T14:25:39;15.00;99.90
54431;DHT22;40342;52.998;5.862;2023-05-10T14:28:05;14.90;99.90
54431;DHT22;40342;52.998;5.862;2023-05-10T14:30:31;14.90;99.90
54431;DHT22;40342;52.998;5.862;2023-05-10T14:32:59;14.90;99.90
54431;DHT22;40342;52.998;5.862;2023-05-10T14:35:27;14.90;99.90
54431;DHT22;40342;52.998;5.862;2023-05-10T14:37:52;14.80;99.90
54431;DHT22;40342;52.998;5.862;2023-05-10T14:40:18;14.80;99.90
54431;DHT22;40342;52.998;5.862;2023-05-10T14:42:44;14.80;99.90
54431;DHT22;40342;52.998;5.862;2023-05-10T14:45:10;14.80;99.90
54431;DHT22;40342;52.998;5.862;2023-05-10T14:47:36;14.80;99.90
54431;DHT22;40342;52.998;5.862;2023-05-10T14:50:02;14.80;99.90
54431;DHT22;40342;52.998;5.862;2023-05-10T14:52:27;14.80;99.90
54431;DHT22;40342;52.998;5.862;2023-05-10T14:54:53;14.80;99.90
54431;DHT22;40342;52.998;5.862;2023-05-10T14:57:19;14.80;99.90
54431;DHT22;40342;52.998;5.862;2023-05-10T14:59:44;14.80;99.90
54431;DHT22;40342;52.998;5.862;2023-05-10T15:02:10;14.80;99.90
54431;DHT22;40342;52.998;5.862;2023-05-10T15:04:36;14.80;99.90
54431;DHT22;40342;52.998;5.862;2023-05-10T15:07:01;14.80;99.90
54431;DHT22;40342;52.998;5.862;2023-05-10T15:09:27;14.70;99.90
54431;DHT22;40342;52.998;5.862;2023-05-10T15:11:53;14.70;99.90
54431;DHT22;40342;52.998;5.862;2023-05-10T15:14:19;14.70;99.90
54431;DHT22;40342;52.998;5.862;2023-05-10T15:16:44;14.70;99.90
54431;DHT22;40342;52.998;5.862;2023-05-10T15:19:10;14.70;99.90
54431;DHT22;40342;52.998;5.862;2023-05-10T15:21:35;14.70;99.90
54431;DHT22;40342;52.998;5.862;2023-05-10T15:24:08;14.60;99.90
54431;DHT22;40342;52.998;5.862;2023-05-10T15:26:33;14.60;99.90
54431;DHT22;40342;52.998;5.862;2023-05-10T15:28:59;14.60;99.90
54431;DHT22;40342;52.998;5.862;2023-05-10T15:31:25;14.60;99.90
54431;DHT22;40342;52.998;5.862;2023-05-10T15:33:50;14.60;99.90
54431;DHT22;40342;52.998;5.862;2023-05-10T15:36:16;14.60;99.90
54431;DHT22;40342;52.998;5.862;2023-05-10T15:38:43;14.60;99.90
54431;DHT22;40342;52.998;5.862;2023-05-10T15:41:09;14.70;99.90
54431;DHT22;40342;52.998;5.862;2023-05-10T15:43:35;14.70;99.90
54431;DHT22;40342;52.998;5.862;2023-05-10T15:46:01;14.70;99.90
54431;DHT22;40342;52.998;5.862;2023-05-10T15:48:27;14.70;99.90
54431;DHT22;40342;52.998;5.862;2023-05-10T15:50:52;14.70;99.90
54431;DHT22;40342;52.998;5.862;2023-05-10T15:53:19;14.70;99.90
54431;DHT22;40342;52.998;5.862;2023-05-10T15:55:44;14.70;99.90
54431;DHT22;40342;52.998;5.862;2023-05-10T15:58:10;14.70;99.90
54431;DHT22;40342;52.998;5.862;2023-05-10T16:00:36;15.00;99.90